Time;durP1;ratioP1;P1;durP2;ratioP2;P2;SDS_P1;SDS_P2;PMS_P1;PMS_P2;Temp;Humidity;BMP_temperature;BMP_pressure;BME280_temperature;BME280_humidity;BME280_pressure;Samples;Min_cycle;Max_cycle;Signal;HPM_P1;HPM_P2
2022/01/01 00:00:46;;;;;;;47.30;24.90;;;7.90;99.90;;;;;;5050520;28;20044;-78
2022/01/01 00:03:11;;;;;;;49.38;26.67;;;7.80;99.90;;;;;;5057864;28;20028;-77
2022/01/01 00:05:37;;;;;;;47.00;26.30;;;7.80;99.90;;;;;;5058441;28;20151;-77
2022/01/01 00:08:05;;;;;;;47.60;27.02;;;7.80;99.90;;;;;;5052837;28;20394;-76
2022/01/01 00:10:31;;;;;;;51.42;27.38;;;7.80;99.90;;;;;;5055076;28;20032;-78
2022/01/01 00:12:56;;;;;;;51.95;26.65;;;7.80;99.90;;;;;;5065690;28;20051;-77
2022/01/01 00:15:22;;;;;;;51.50;28.85;;;7.80;99.90;;;;;;5054853;28;20056;-78
2022/01/01 00:17:48;;;;;;;50.50;28.30;;;7.80;99.90;;;;;;5053456;28;20037;-77
2022/01/01 00:20:14;;;;;;;49.45;25.00;;;7.80;99.90;;;;;;5052040;28;20049;-77
2022/01/01 00:22:41;;;;;;;51.00;27.67;;;7.80;99.90;;;;;;5051588;28;20027;-77
2022/01/01 00:25:08;;;;;;;45.97;26.63;;;7.80;99.90;;;;;;5051911;28;20029;-77
2022/01/01 00:27:34;;;;;;;53.40;28.08;;;7.80;99.90;;;;;;5050565;28;20438;-77
2022/01/01 00:30:00;;;;;;;50.90;27.15;;;7.80;99.90;;;;;;5051506;28;20063;-77
2022/01/01 00:32:25;;;;;;;43.30;23.65;;;7.80;99.90;;;;;;5053335;28;20017;-77
2022/01/01 00:34:51;;;;;;;43.65;23.88;;;7.80;99.90;;;;;;5051835;28;20402;-77
2022/01/01 00:37:17;;;;;;;43.30;23.60;;;7.80;99.90;;;;;;5050502;28;20036;-77
2022/01/01 00:39:43;;;;;;;41.92;22.70;;;7.90;99.90;;;;;;5051532;28;20037;-77
2022/01/01 00:42:09;;;;;;;37.25;21.52;;;7.90;99.90;;;;;;5058003;28;20035;-78
2022/01/01 00:44:35;;;;;;;37.85;19.85;;;7.90;99.90;;;;;;5065734;28;20038;-77
2022/01/01 00:47:01;;;;;;;36.30;18.63;;;7.90;99.90;;;;;;5052420;28;20028;-77
2022/01/01 00:49:27;;;;;;;32.90;20.13;;;7.90;99.90;;;;;;5050285;28;20348;-77
2022/01/01 00:51:53;;;;;;;35.33;20.20;;;7.90;99.90;;;;;;5051567;28;20017;-77
2022/01/01 00:54:19;;;;;;;31.02;18.35;;;7.90;99.90;;;;;;5052485;28;20406;-77
2022/01/01 00:56:45;;;;;;;28.80;16.38;;;7.90;99.90;;;;;;5049985;28;20033;-78
2022/01/01 00:59:10;;;;;;;29.55;17.75;;;7.90;99.90;;;;;;5052364;28;20096;-77
2022/01/01 01:01:37;;;;;;;28.33;16.88;;;7.90;99.90;;;;;;5049274;28;20017;-77
2022/01/01 01:04:03;;;;;;;28.98;17.85;;;7.90;99.90;;;;;;5060247;28;20016;-77
2022/01/01 01:06:29;;;;;;;27.45;16.73;;;7.90;99.90;;;;;;5058126;28;20431;-77
2022/01/01 01:08:58;;;;;;;31.58;17.45;;;7.90;99.90;;;;;;5066698;28;20055;-77
2022/01/01 01:11:24;;;;;;;26.50;15.20;;;7.90;99.90;;;;;;5052407;28;20017;-77
2022/01/01 01:13:57;;;;;;;25.30;16.30;;;7.90;99.90;;;;;;5065742;28;20039;-78
2022/01/01 01:16:24;;;;;;;26.67;15.35;;;7.90;99.90;;;;;;5071103;28;20454;-77
2022/01/01 01:18:51;;;;;;;23.52;15.98;;;7.90;99.90;;;;;;5091307;28;20139;-77
2022/01/01 01:21:17;;;;;;;27.98;15.18;;;7.90;99.90;;;;;;5086168;28;20070;-77
2022/01/01 01:23:43;;;;;;;23.88;13.60;;;7.90;99.90;;;;;;5070132;28;20063;-77
2022/01/01 01:26:08;;;;;;;22.23;14.88;;;7.90;99.90;;;;;;5061148;28;20021;-77
2022/01/01 01:28:35;;;;;;;22.80;13.25;;;7.80;99.90;;;;;;5059822;28;20104;-77
2022/01/01 01:31:00;;;;;;;20.65;13.70;;;7.90;99.90;;;;;;5063551;28;20055;-78
2022/01/01 01:33:26;;;;;;;24.45;14.13;;;7.90;99.90;;;;;;5062276;28;20481;-78
2022/01/01 01:35:52;;;;;;;20.90;13.32;;;7.90;99.90;;;;;;5060344;28;20435;-77
2022/01/01 01:38:18;;;;;;;25.35;14.20;;;7.90;99.90;;;;;;5050408;28;20116;-77
2022/01/01 01:40:44;;;;;;;23.45;14.00;;;7.90;99.90;;;;;;5068157;28;20025;-78
2022/01/01 01:43:11;;;;;;;21.30;14.05;;;7.90;99.90;;;;;;5061137;28;20417;-78
2022/01/01 01:45:37;;;;;;;21.67;12.30;;;7.90;99.90;;;;;;5062186;28;20028;-79
2022/01/01 01:48:03;;;;;;;18.08;11.55;;;7.90;99.90;;;;;;5060399;28;20031;-78
2022/01/01 01:50:30;;;;;;;20.23;12.00;;;7.90;99.90;;;;;;5050657;28;20053;-78
2022/01/01 01:52:58;;;;;;;23.45;14.60;;;7.90;99.90;;;;;;5053228;28;20013;-78
2022/01/01 01:55:27;;;;;;;22.58;13.63;;;7.90;99.90;;;;;;5069827;28;20089;-79
2022/01/01 01:57:53;;;;;;;20.20;12.68;;;8.00;99.90;;;;;;5051124;28;20379;-79
2022/01/01 02:03:09;;;;;;;21.13;12.65;;;7.90;99.90;;;;;;5063454;28;20064;-80
2022/01/01 02:05:35;;;;;;;21.20;12.60;;;8.00;99.90;;;;;;5059207;28;20021;-79
2022/01/01 02:08:01;;;;;;;21.75;11.98;;;8.00;99.90;;;;;;5049802;28;20017;-79
2022/01/01 02:10:27;;;;;;;18.05;11.77;;;8.00;99.90;;;;;;5050631;28;20024;-80
2022/01/01 02:12:55;;;;;;;20.10;11.30;;;8.00;99.90;;;;;;5051234;28;20021;-80
2022/01/01 02:18:22;;;;;;;12.15;9.20;;;8.00;99.90;;;;;;5053940;28;20090;-80
2022/01/01 02:20:51;;;;;;;13.93;9.90;;;8.00;99.90;;;;;;5053780;28;20424;-80
2022/01/01 02:23:18;;;;;;;15.68;9.40;;;8.10;99.90;;;;;;5055055;28;20075;-80
2022/01/01 02:25:44;;;;;;;11.15;8.60;;;8.00;99.90;;;;;;5052984;28;20032;-79
2022/01/01 02:28:11;;;;;;;10.88;8.25;;;8.10;99.90;;;;;;5054204;28;20029;-79
2022/01/01 02:30:37;;;;;;;10.70;7.90;;;8.10;99.90;;;;;;5054038;28;20032;-79
2022/01/01 02:33:03;;;;;;;10.02;7.05;;;8.10;99.90;;;;;;5052881;28;20021;-79
2022/01/01 02:35:29;;;;;;;11.48;7.68;;;8.10;99.90;;;;;;5052741;28;20024;-79
2022/01/01 02:37:54;;;;;;;13.57;8.32;;;8.10;99.90;;;;;;5058127;28;20092;-79
2022/01/01 02:40:20;;;;;;;8.25;6.68;;;8.10;99.90;;;;;;5072647;28;20052;-79
2022/01/01 02:42:46;;;;;;;9.23;6.63;;;8.20;99.90;;;;;;5071893;28;20028;-79
2022/01/01 02:45:13;;;;;;;11.25;6.20;;;8.20;99.90;;;;;;5073281;28;20551;-79
2022/01/01 02:47:40;;;;;;;9.85;6.72;;;8.20;99.90;;;;;;5058937;28;20074;-79
2022/01/01 02:50:07;;;;;;;8.77;5.45;;;8.20;99.90;;;;;;5055885;28;20059;-78
2022/01/01 02:52:32;;;;;;;10.85;7.07;;;8.20;99.90;;;;;;5052523;28;20033;-79
2022/01/01 02:54:58;;;;;;;8.75;5.68;;;8.20;99.90;;;;;;5052494;28;20018;-80
2022/01/01 02:57:24;;;;;;;7.22;5.10;;;8.30;99.90;;;;;;5052686;28;20060;-80
2022/01/01 02:59:49;;;;;;;6.50;5.05;;;8.30;99.90;;;;;;5053409;28;20163;-79
2022/01/01 03:02:15;;;;;;;6.53;5.07;;;8.30;99.90;;;;;;5052440;28;20040;-79
2022/01/01 03:04:41;;;;;;;8.73;5.80;;;8.20;99.90;;;;;;5052193;28;20029;-80
2022/01/01 03:07:07;;;;;;;8.45;5.25;;;8.20;99.90;;;;;;5058111;28;20025;-80
2022/01/01 03:09:35;;;;;;;6.70;4.90;;;8.20;99.90;;;;;;5067174;28;20013;-80
2022/01/01 03:12:08;;;;;;;7.20;5.10;;;8.20;99.90;;;;;;5062312;28;20029;-80
2022/01/01 03:14:33;;;;;;;;;;;8.20;99.90;;;;;;5052419;28;20017;-80
2022/01/01 03:17:00;;;;;;;5.05;3.60;;;8.20;99.90;;;;;;5052038;28;20370;-79
2022/01/01 03:19:25;;;;;;;6.07;4.32;;;8.20;99.90;;;;;;5053087;28;20514;-79
2022/01/01 03:21:51;;;;;;;5.88;4.57;;;8.20;99.90;;;;;;5057278;28;20048;-79
2022/01/01 03:24:17;;;;;;;5.78;4.47;;;8.30;99.90;;;;;;5071004;28;20032;-79
2022/01/01 03:26:43;;;;;;;5.97;4.85;;;8.30;99.90;;;;;;5073121;28;20095;-79
2022/01/01 03:29:10;;;;;;;9.10;5.03;;;8.30;99.90;;;;;;5054795;28;20032;-79
2022/01/01 03:31:35;;;;;;;7.78;5.20;;;8.30;99.90;;;;;;5069269;28;20124;-79
2022/01/01 03:34:01;;;;;;;7.47;4.95;;;8.30;99.90;;;;;;5053015;28;20108;-79
2022/01/01 03:36:27;;;;;;;6.05;4.53;;;8.30;99.90;;;;;;5051688;28;20017;-79
2022/01/01 03:38:53;;;;;;;6.75;5.75;;;8.30;99.90;;;;;;5051683;28;20033;-79
2022/01/01 03:41:19;;;;;;;8.40;5.00;;;8.30;99.90;;;;;;5052831;28;20056;-79
2022/01/01 03:43:45;;;;;;;7.82;4.78;;;8.40;99.90;;;;;;5070644;28;20058;-79
2022/01/01 03:46:10;;;;;;;8.40;4.80;;;8.40;99.90;;;;;;5071152;28;20052;-80
2022/01/01 03:48:36;;;;;;;5.20;4.07;;;8.40;99.90;;;;;;5052772;28;20545;-80
2022/01/01 03:51:02;;;;;;;6.90;4.45;;;8.40;99.90;;;;;;5052443;28;20017;-80
2022/01/01 03:53:27;;;;;;;8.25;4.32;;;8.40;99.90;;;;;;5051404;28;20386;-80
2022/01/01 03:55:53;;;;;;;9.35;4.13;;;8.40;99.90;;;;;;5054221;28;20025;-80
2022/01/01 03:58:19;;;;;;;6.15;4.60;;;8.40;99.90;;;;;;5071574;28;20041;-80
2022/01/01 04:00:44;;;;;;;6.40;4.43;;;8.40;99.90;;;;;;5072457;28;20027;-80
2022/01/01 04:03:16;;;;;;;6.68;3.95;;;8.40;99.90;;;;;;5070858;28;20017;-80
2022/01/01 04:05:43;;;;;;;6.82;4.95;;;8.40;99.90;;;;;;5064181;28;20386;-80
2022/01/01 04:08:10;;;;;;;9.00;5.20;;;8.40;99.90;;;;;;5051072;28;20028;-80
2022/01/01 04:10:37;;;;;;;5.10;4.07;;;8.40;99.90;;;;;;5052239;28;20025;-79
2022/01/01 04:13:04;;;;;;;7.88;5.30;;;8.40;99.90;;;;;;5050958;28;20025;-79
2022/01/01 04:15:31;;;;;;;9.85;4.53;;;8.40;99.90;;;;;;5050855;28;20020;-79
2022/01/01 04:18:01;;;;;;;7.75;4.72;;;8.40;99.90;;;;;;5050759;28;20044;-79
2022/01/01 04:20:27;;;;;;;6.07;4.38;;;8.40;99.90;;;;;;5050907;28;20025;-79
2022/01/01 04:22:54;;;;;;;6.55;4.35;;;8.40;99.90;;;;;;5052087;28;20025;-79
2022/01/01 04:25:20;;;;;;;5.63;4.20;;;8.40;99.90;;;;;;5051963;28;20115;-79
2022/01/01 04:27:47;;;;;;;7.90;4.70;;;8.40;99.90;;;;;;5050665;28;20032;-79
2022/01/01 04:30:13;;;;;;;4.30;3.67;;;8.40;99.90;;;;;;5050583;28;20021;-79
2022/01/01 04:32:39;;;;;;;6.97;4.38;;;8.40;99.90;;;;;;5067996;28;20506;-79
2022/01/01 04:35:05;;;;;;;5.30;4.43;;;8.40;99.90;;;;;;5068539;28;20048;-79
2022/01/01 04:37:31;;;;;;;7.68;4.40;;;8.40;99.90;;;;;;5070278;28;20032;-79
2022/01/01 04:39:59;;;;;;;6.07;4.28;;;8.40;99.90;;;;;;5070416;28;20028;-79
2022/01/01 04:42:28;;;;;;;6.45;4.15;;;8.40;99.90;;;;;;5070485;28;20025;-78
2022/01/01 04:44:54;;;;;;;8.45;4.53;;;8.40;99.90;;;;;;5070941;28;20024;-79
2022/01/01 04:47:19;;;;;;;8.13;4.38;;;8.40;99.90;;;;;;5072022;28;20385;-80
2022/01/01 04:49:45;;;;;;;6.82;4.40;;;8.40;99.90;;;;;;5069359;28;20504;-80
2022/01/01 04:52:11;;;;;;;3.70;3.30;;;8.40;99.90;;;;;;5071629;28;20099;-80
2022/01/01 04:54:40;;;;;;;6.05;3.80;;;8.40;99.90;;;;;;5071454;28;20035;-80
2022/01/01 04:57:06;;;;;;;4.38;3.63;;;8.40;99.90;;;;;;5070177;28;20032;-80
2022/01/01 04:59:33;;;;;;;5.80;4.55;;;8.40;99.90;;;;;;5071064;28;20027;-80
2022/01/01 05:01:59;;;;;;;5.47;4.32;;;8.40;99.90;;;;;;5071568;28;20301;-80
2022/01/01 05:04:25;;;;;;;6.78;4.60;;;8.40;99.90;;;;;;5070601;28;20056;-80
2022/01/01 05:06:51;;;;;;;5.80;4.53;;;8.40;99.90;;;;;;5051048;28;20036;-80
2022/01/01 05:09:18;;;;;;;7.45;5.60;;;8.40;99.90;;;;;;5051326;28;20471;-79
2022/01/01 05:11:43;;;;;;;8.95;5.57;;;8.40;99.90;;;;;;5051306;28;20017;-80
2022/01/01 05:14:09;;;;;;;6.47;4.90;;;8.50;99.90;;;;;;5063317;28;20466;-80
2022/01/01 05:16:35;;;;;;;8.30;5.40;;;8.40;99.90;;;;;;5071192;28;20036;-80
2022/01/01 05:19:01;;;;;;;6.55;4.93;;;8.40;99.90;;;;;;5070064;28;20048;-80
2022/01/01 05:21:31;;;;;;;9.80;4.97;;;8.40;99.90;;;;;;5068509;28;20410;-80
2022/01/01 05:23:56;;;;;;;6.40;5.20;;;8.50;99.90;;;;;;5071177;28;20035;-80
2022/01/01 05:26:22;;;;;;;8.07;4.90;;;8.50;99.90;;;;;;5071262;28;20021;-80
2022/01/01 05:28:49;;;;;;;8.25;5.63;;;8.50;99.90;;;;;;5069871;28;20112;-80
2022/01/01 05:31:15;;;;;;;9.05;6.43;;;8.50;99.90;;;;;;5069828;28;20596;-79
2022/01/01 05:33:41;;;;;;;6.78;5.55;;;8.50;99.90;;;;;;5062438;28;20024;-80
2022/01/01 05:36:07;;;;;;;10.38;6.55;;;8.50;99.90;;;;;;5050877;28;20440;-80
2022/01/01 05:38:32;;;;;;;8.00;5.50;;;8.50;99.90;;;;;;5070881;28;20036;-80
2022/01/01 05:40:58;;;;;;;10.80;6.28;;;8.50;99.90;;;;;;5069733;28;20035;-80
2022/01/01 05:43:24;;;;;;;7.85;5.55;;;8.50;99.90;;;;;;5069788;28;20024;-79
2022/01/01 05:45:50;;;;;;;6.25;5.65;;;8.50;99.90;;;;;;5069626;28;20032;-79
2022/01/01 05:48:16;;;;;;;8.80;5.88;;;8.50;99.90;;;;;;5070587;28;20373;-79
2022/01/01 05:50:41;;;;;;;6.45;5.78;;;8.50;99.90;;;;;;5054942;28;20109;-79
2022/01/01 05:53:07;;;;;;;5.75;4.82;;;8.50;99.90;;;;;;5053669;28;20425;-80
2022/01/01 05:55:33;;;;;;;6.47;4.72;;;8.50;99.90;;;;;;5053544;28;20021;-80
2022/01/01 05:57:59;;;;;;;6.82;5.57;;;8.50;99.90;;;;;;5054806;28;20040;-80
2022/01/01 06:00:24;;;;;;;5.93;4.80;;;8.50;99.90;;;;;;5054809;28;20027;-80
2022/01/01 06:02:50;;;;;;;5.95;5.35;;;8.50;99.90;;;;;;5060055;28;20016;-80
2022/01/01 06:05:17;;;;;;;6.28;5.00;;;8.60;99.90;;;;;;5066160;28;20029;-81
2022/01/01 06:07:43;;;;;;;8.68;5.78;;;8.60;99.90;;;;;;5054649;28;20482;-80
2022/01/01 06:10:08;;;;;;;6.78;5.70;;;8.60;99.90;;;;;;5053332;28;20048;-80
2022/01/01 06:12:38;;;;;;;7.68;5.30;;;8.60;99.90;;;;;;5073060;28;20031;-80
2022/01/01 06:15:04;;;;;;;7.20;5.22;;;8.60;99.90;;;;;;5074491;28;20024;-80
2022/01/01 06:17:29;;;;;;;7.93;5.63;;;8.60;99.90;;;;;;5072969;28;20044;-80
2022/01/01 06:19:55;;;;;;;8.15;5.75;;;8.60;99.90;;;;;;5071978;28;20600;-80
2022/01/01 06:22:20;;;;;;;8.02;5.75;;;8.70;99.90;;;;;;5074465;28;20371;-80
2022/01/01 06:24:46;;;;;;;7.45;5.70;;;8.70;99.90;;;;;;5072923;28;20509;-80
2022/01/01 06:27:13;;;;;;;7.10;5.60;;;8.70;99.90;;;;;;5054531;28;20025;-80
2022/01/01 06:29:38;;;;;;;7.65;5.55;;;8.70;99.90;;;;;;5052850;28;20546;-79
2022/01/01 06:32:04;;;;;;;8.63;5.60;;;8.70;99.90;;;;;;5068170;28;20104;-80
2022/01/01 06:34:30;;;;;;;6.47;5.18;;;8.70;99.90;;;;;;5071734;28;20112;-80
2022/01/01 06:36:55;;;;;;;8.10;6.43;;;8.70;99.90;;;;;;5054030;28;20029;-80
2022/01/01 06:39:21;;;;;;;7.13;5.75;;;8.70;99.90;;;;;;5069645;28;20112;-80
2022/01/01 06:41:46;;;;;;;6.25;5.63;;;8.70;99.90;;;;;;5052725;28;20029;-80
2022/01/01 06:44:12;;;;;;;8.80;5.43;;;8.70;99.90;;;;;;5052660;28;20386;-80
2022/01/01 06:46:38;;;;;;;9.18;6.35;;;8.80;99.90;;;;;;5070759;28;20475;-80
2022/01/01 06:49:03;;;;;;;11.55;6.85;;;8.80;99.90;;;;;;5074165;28;20129;-80
2022/01/01 06:51:29;;;;;;;9.80;5.20;;;8.70;99.90;;;;;;5069758;28;20032;-80
2022/01/01 06:53:54;;;;;;;10.57;6.75;;;8.80;99.90;;;;;;5072862;28;20083;-80
2022/01/01 06:56:20;;;;;;;7.28;5.75;;;8.80;99.90;;;;;;5073750;28;20077;-80
2022/01/01 06:58:45;;;;;;;8.98;5.65;;;8.80;99.90;;;;;;5071121;28;20033;-80
2022/01/01 07:01:11;;;;;;;6.47;5.38;;;8.80;99.90;;;;;;5062430;28;20599;-80
2022/01/01 07:03:37;;;;;;;6.95;5.63;;;8.80;99.90;;;;;;5073637;28;20115;-80
2022/01/01 07:06:02;;;;;;;10.40;6.90;;;8.80;99.90;;;;;;5056098;28;20257;-80
2022/01/01 07:08:28;;;;;;;7.72;5.88;;;8.80;99.90;;;;;;5053610;28;20017;-79
2022/01/01 07:10:54;;;;;;;8.00;6.05;;;8.80;99.90;;;;;;5052191;28;20036;-79
2022/01/01 07:13:19;;;;;;;7.22;6.05;;;8.80;99.90;;;;;;5070549;28;20493;-79
2022/01/01 07:15:45;;;;;;;7.40;5.88;;;8.80;99.90;;;;;;5053371;28;20021;-79
2022/01/01 07:18:11;;;;;;;6.65;5.50;;;8.80;99.90;;;;;;5053867;28;20490;-79
2022/01/01 07:20:37;;;;;;;7.30;5.15;;;8.80;99.90;;;;;;5051734;28;20582;-79
2022/01/01 07:23:02;;;;;;;6.00;5.10;;;8.80;99.90;;;;;;5056365;28;20025;-80
2022/01/01 07:25:29;;;;;;;6.45;5.65;;;8.80;99.90;;;;;;5060665;28;20021;-79
2022/01/01 07:27:55;;;;;;;9.10;5.85;;;8.80;99.90;;;;;;5058789;28;20506;-79
2022/01/01 07:30:20;;;;;;;6.15;5.55;;;8.80;99.90;;;;;;5060983;28;20031;-80
2022/01/01 07:32:47;;;;;;;6.68;5.40;;;8.80;99.90;;;;;;5059620;28;20048;-80
2022/01/01 07:35:15;;;;;;;8.27;6.53;;;8.80;99.90;;;;;;5052060;28;20033;-80
2022/01/01 07:37:41;;;;;;;7.50;5.35;;;8.80;99.90;;;;;;5055915;28;20028;-80
2022/01/01 07:40:08;;;;;;;5.47;4.90;;;8.80;99.90;;;;;;5056434;28;20051;-80
2022/01/01 07:42:34;;;;;;;8.15;5.30;;;8.80;99.90;;;;;;5058843;28;20021;-80
2022/01/01 07:45:00;;;;;;;6.22;5.38;;;8.80;99.90;;;;;;5055845;28;20388;-80
2022/01/01 07:47:26;;;;;;;7.60;5.68;;;8.80;99.90;;;;;;5059791;28;20017;-80
2022/01/01 07:49:52;;;;;;;8.88;5.85;;;8.80;99.90;;;;;;5059210;28;20029;-80
2022/01/01 07:52:18;;;;;;;7.68;6.10;;;8.80;99.90;;;;;;5058742;28;20032;-80
2022/01/01 07:54:43;;;;;;;8.20;6.05;;;8.80;99.90;;;;;;5055154;28;20040;-80
2022/01/01 07:57:09;;;;;;;6.63;5.20;;;8.80;99.90;;;;;;5057064;28;20067;-80
2022/01/01 07:59:35;;;;;;;7.30;5.72;;;8.80;99.90;;;;;;5055650;28;20045;-80
2022/01/01 08:02:00;;;;;;;6.95;6.18;;;8.80;99.90;;;;;;5061255;28;20021;-79
2022/01/01 08:04:26;;;;;;;9.10;6.47;;;8.80;99.90;;;;;;5059861;28;20021;-80
2022/01/01 08:06:51;;;;;;;8.02;6.05;;;8.80;99.90;;;;;;5056795;28;20066;-80
2022/01/01 08:09:17;;;;;;;8.80;6.22;;;8.80;99.90;;;;;;5053562;28;20486;-80
2022/01/01 08:11:43;;;;;;;10.35;6.97;;;8.80;99.90;;;;;;5058211;28;20035;-80
2022/01/01 08:14:08;;;;;;;8.20;6.88;;;8.80;99.90;;;;;;5060917;28;20387;-80
2022/01/01 08:16:34;;;;;;;11.52;6.15;;;8.80;99.90;;;;;;5052912;28;20049;-80
2022/01/01 08:19:00;;;;;;;9.80;6.63;;;8.80;99.90;;;;;;5062285;28;20033;-80
2022/01/01 08:21:25;;;;;;;10.73;6.10;;;8.80;99.90;;;;;;5059668;28;20483;-80
2022/01/01 08:23:51;;;;;;;7.53;5.93;;;8.80;99.90;;;;;;5055296;28;20021;-80
2022/01/01 08:26:17;;;;;;;8.63;6.13;;;8.80;99.90;;;;;;5053592;28;20036;-80
2022/01/01 08:28:42;;;;;;;6.93;5.65;;;8.80;99.90;;;;;;5059090;28;20039;-80
2022/01/01 08:31:08;;;;;;;10.00;6.35;;;8.80;99.90;;;;;;5053855;28;20021;-80
2022/01/01 08:33:34;;;;;;;8.55;6.10;;;8.90;99.90;;;;;;5060431;28;20093;-80
2022/01/01 08:36:03;;;;;;;10.95;6.13;;;8.90;99.90;;;;;;5057122;28;20025;-79
2022/01/01 08:38:29;;;;;;;7.60;6.35;;;8.90;99.90;;;;;;5055180;28;20108;-79
2022/01/01 08:40:55;;;;;;;10.02;6.90;;;8.90;99.90;;;;;;5059381;28;20454;-79
2022/01/01 08:43:23;;;;;;;9.52;6.18;;;8.90;99.90;;;;;;5052087;28;20060;-79
2022/01/01 08:45:48;;;;;;;10.10;7.38;;;8.90;99.90;;;;;;5053127;28;20029;-80
2022/01/01 08:48:14;;;;;;;13.85;8.77;;;8.90;99.90;;;;;;5063257;28;20492;-80
2022/01/01 08:50:41;;;;;;;16.80;11.10;;;8.90;99.90;;;;;;5057416;28;20484;-80
2022/01/01 08:53:06;;;;;;;11.88;8.85;;;8.90;99.90;;;;;;5067391;28;20095;-80
2022/01/01 08:55:32;;;;;;;10.07;7.40;;;8.90;99.90;;;;;;5063559;28;20511;-80
2022/01/01 08:57:58;;;;;;;11.27;8.38;;;8.90;99.90;;;;;;5069561;28;20490;-79
2022/01/01 09:00:23;;;;;;;9.88;6.93;;;8.90;99.90;;;;;;5071420;28;20074;-80
2022/01/01 09:02:49;;;;;;;12.68;8.43;;;8.90;99.90;;;;;;5068840;28;20021;-79
2022/01/01 09:05:15;;;;;;;10.57;7.18;;;8.90;99.90;;;;;;5071770;28;20020;-80
2022/01/01 09:07:40;;;;;;;17.95;11.27;;;8.90;99.90;;;;;;5055793;28;20055;-79
2022/01/01 09:10:07;;;;;;;12.05;8.10;;;8.90;99.90;;;;;;5071458;28;20036;-80
2022/01/01 09:12:32;;;;;;;18.63;12.90;;;8.90;99.90;;;;;;5069991;28;20021;-79
2022/01/01 09:14:58;;;;;;;17.70;10.15;;;8.90;99.90;;;;;;5071471;28;20028;-80
2022/01/01 09:17:24;;;;;;;8.73;6.38;;;8.90;99.90;;;;;;5071230;28;20445;-80
2022/01/01 09:19:49;;;;;;;8.52;6.18;;;8.90;99.90;;;;;;5071177;28;20493;-79
2022/01/01 09:22:15;;;;;;;9.55;6.32;;;8.90;99.90;;;;;;5069085;28;20507;-79
2022/01/01 09:24:41;;;;;;;8.68;5.30;;;8.90;99.90;;;;;;5059825;28;20028;-79
2022/01/01 09:27:07;;;;;;;4.22;3.83;;;8.90;99.90;;;;;;5055197;28;20360;-79
2022/01/01 09:29:33;;;;;;;6.90;4.72;;;9.00;99.90;;;;;;5060672;28;20470;-79
2022/01/01 09:31:59;;;;;;;8.77;5.75;;;9.00;99.90;;;;;;5053061;28;20020;-77
2022/01/01 09:34:25;;;;;;;10.82;7.38;;;9.00;99.90;;;;;;5070118;28;20355;-80
2022/01/01 09:36:51;;;;;;;11.23;7.20;;;9.00;99.90;;;;;;5069676;28;20016;-79
2022/01/01 09:39:17;;;;;;;8.45;4.72;;;9.00;99.90;;;;;;5071065;28;20028;-79
2022/01/01 09:41:44;;;;;;;10.13;7.03;;;9.00;99.90;;;;;;5058464;28;20020;-80
2022/01/01 09:44:15;;;;;;;8.25;6.07;;;9.00;99.90;;;;;;5057482;28;20502;-80
2022/01/01 09:46:44;;;;;;;9.73;6.78;;;9.00;99.90;;;;;;5056944;28;20060;-80
2022/01/01 09:49:10;;;;;;;6.50;4.78;;;9.00;99.90;;;;;;5051785;28;20036;-80
2022/01/01 09:51:36;;;;;;;10.35;6.65;;;9.00;99.90;;;;;;5055919;28;20021;-80
2022/01/01 09:54:02;;;;;;;6.82;5.15;;;9.00;99.90;;;;;;5055127;28;20023;-80
2022/01/01 09:56:28;;;;;;;9.57;5.65;;;9.00;99.90;;;;;;5054835;28;20025;-79
2022/01/01 09:58:53;;;;;;;7.30;4.68;;;8.90;99.90;;;;;;5050877;28;20032;-80
2022/01/01 10:01:19;;;;;;;8.07;4.95;;;8.90;99.90;;;;;;5053137;28;20063;-81
2022/01/01 10:03:48;;;;;;;6.35;4.50;;;9.00;99.90;;;;;;5051154;28;20060;-79
2022/01/01 10:06:19;;;;;;;7.88;5.00;;;9.00;99.90;;;;;;5070668;28;20033;-79
2022/01/01 10:08:48;;;;;;;6.22;5.05;;;9.00;99.90;;;;;;5055042;28;20027;-79
2022/01/01 10:11:18;;;;;;;7.90;5.50;;;9.00;99.90;;;;;;5056907;28;20111;-79
2022/01/01 10:13:45;;;;;;;6.80;6.05;;;9.00;99.90;;;;;;5054869;28;20036;-79
2022/01/01 10:16:12;;;;;;;8.57;5.63;;;9.00;99.90;;;;;;5060400;28;20525;-79
2022/01/01 10:18:58;;;;;;;10.43;6.82;;;9.00;99.90;;;;;;5050831;28;20044;-79
2022/01/01 10:21:28;;;;;;;19.73;12.50;;;9.00;99.90;;;;;;5056466;28;20032;-79
2022/01/01 10:23:57;;;;;;;31.85;20.77;;;8.90;99.90;;;;;;5054818;28;20017;-78
2022/01/01 10:29:16;;;;;;;13.15;9.85;;;8.90;99.90;;;;;;5055911;28;20090;-78
2022/01/01 10:31:55;;;;;;;13.98;10.50;;;8.90;99.90;;;;;;5054359;28;20035;-78
2022/01/01 10:34:24;;;;;;;13.18;10.25;;;9.00;99.90;;;;;;5057531;28;20030;-78
2022/01/01 10:36:52;;;;;;;15.18;13.07;;;8.90;99.90;;;;;;5056030;28;20174;-78
2022/01/01 10:39:18;;;;;;;24.48;18.30;;;8.90;99.90;;;;;;5059921;28;20034;-79
2022/01/01 10:41:53;;;;;;;82.38;44.25;;;8.90;99.90;;;;;;5054767;28;20033;-78
2022/01/01 10:44:34;;;;;;;55.13;24.58;;;8.90;99.90;;;;;;5058115;28;20078;-78
2022/01/01 10:47:13;;;;;;;40.72;27.95;;;8.90;99.90;;;;;;5056326;28;20033;-78
2022/01/01 10:52:35;;;;;;;59.13;37.17;;;8.90;99.90;;;;;;5055097;28;20029;-79
2022/01/01 10:55:01;;;;;;;42.00;27.15;;;8.90;99.90;;;;;;5055248;28;20429;-79
2022/01/01 10:57:32;;;;;;;46.15;21.30;;;8.90;99.90;;;;;;5052925;28;20478;-78
2022/01/01 11:00:14;;;;;;;37.05;17.67;;;8.90;99.90;;;;;;5070818;28;20021;-78
2022/01/01 11:02:52;;;;;;;42.35;29.80;;;8.90;99.90;;;;;;5063599;28;20048;-78
2022/01/01 11:05:33;;;;;;;27.10;21.73;;;8.90;99.90;;;;;;5059192;28;20031;-76
2022/01/01 11:07:59;;;;;;;50.38;34.90;;;8.90;99.90;;;;;;5070404;28;20036;-78
2022/01/01 11:10:26;;;;;;;30.92;20.95;;;8.90;99.90;;;;;;5073013;28;20028;-78
2022/01/01 11:12:53;;;;;;;142.60;94.20;;;8.90;99.90;;;;;;5071557;28;20386;-78
2022/01/01 11:15:21;;;;;;;44.50;32.15;;;9.00;99.90;;;;;;5071561;28;20020;-78
2022/01/01 11:17:48;;;;;;;45.53;32.55;;;9.00;99.90;;;;;;5071245;28;20048;-79
2022/01/01 11:20:14;;;;;;;99.65;69.47;;;9.00;99.90;;;;;;5071786;28;20033;-79
2022/01/01 11:22:41;;;;;;;42.40;31.48;;;9.00;99.90;;;;;;5070787;28;20042;-79
2022/01/01 11:25:07;;;;;;;24.70;18.48;;;9.00;99.90;;;;;;5069645;28;20028;-79
2022/01/01 11:27:33;;;;;;;25.75;20.55;;;9.00;99.90;;;;;;5055981;28;20037;-78
2022/01/01 11:30:01;;;;;;;21.40;16.27;;;9.00;99.90;;;;;;5058794;28;20063;-79
2022/01/01 11:32:50;;;;;;;14.73;13.07;;;9.00;99.90;;;;;;5055918;28;20098;-79
2022/01/01 11:35:22;;;;;;;41.83;16.73;;;9.00;99.90;;;;;;5055979;28;20052;-79
2022/01/01 11:38:11;;;;;;;41.78;16.77;;;9.00;99.90;;;;;;5058791;28;20041;-79
2022/01/01 11:40:45;;;;;;;21.00;13.38;;;9.00;99.90;;;;;;5056352;28;20036;-79
2022/01/01 11:43:41;;;;;;;15.60;11.15;;;9.00;99.90;;;;;;5062310;28;20040;-79
2022/01/01 11:46:10;;;;;;;14.85;12.27;;;9.00;99.90;;;;;;5062333;28;20119;-78
2022/01/01 11:48:39;;;;;;;15.88;12.32;;;9.00;99.90;;;;;;5057671;28;20664;-79
2022/01/01 11:51:22;;;;;;;18.20;15.25;;;9.00;99.90;;;;;;5050451;28;20025;-78
2022/01/01 11:54:07;;;;;;;14.23;9.38;;;9.00;99.90;;;;;;5051865;28;20070;-78
2022/01/01 11:57:05;;;;;;;21.30;15.75;;;9.00;99.90;;;;;;5058093;28;20102;-78
2022/01/01 11:59:38;;;;;;;16.60;9.30;;;9.10;99.90;;;;;;5067011;28;20059;-79
2022/01/01 12:02:25;;;;;;;27.15;13.18;;;9.00;99.90;;;;;;5057651;28;20020;-79
2022/01/01 12:05:05;;;;;;;16.42;9.32;;;9.00;99.90;;;;;;5072223;28;20040;-80
2022/01/01 12:07:40;;;;;;;15.43;9.60;;;9.10;99.90;;;;;;5071105;28;20036;-80
2022/01/01 12:10:08;;;;;;;13.25;8.20;;;9.00;99.90;;;;;;5071099;28;20255;-80
2022/01/01 12:12:49;;;;;;;14.00;10.07;;;9.00;99.90;;;;;;5050845;28;20021;-80
2022/01/01 12:15:27;;;;;;;17.08;11.57;;;8.90;99.90;;;;;;5058826;28;20032;-80
2022/01/01 12:18:03;;;;;;;17.77;12.30;;;8.90;99.90;;;;;;5050184;28;20573;-80
2022/01/01 12:20:37;;;;;;;26.38;12.80;;;8.90;99.90;;;;;;5051017;28;20013;-80
2022/01/01 12:23:16;;;;;;;15.05;9.13;;;8.80;99.90;;;;;;5057842;28;20020;-79
2022/01/01 12:25:44;;;;;;;18.92;11.77;;;8.90;99.90;;;;;;5054804;28;20036;-80
2022/01/01 12:28:13;;;;;;;36.17;21.50;;;8.90;99.90;;;;;;5053507;28;20029;-79
2022/01/01 12:30:48;;;;;;;17.52;12.07;;;8.90;99.90;;;;;;5052936;28;20029;-79
2022/01/01 12:33:26;;;;;;;19.60;12.18;;;8.80;99.90;;;;;;5052909;28;20021;-79
2022/01/01 12:35:57;;;;;;;16.85;10.70;;;8.80;99.90;;;;;;5050736;28;20031;-80
2022/01/01 12:38:28;;;;;;;21.50;12.00;;;8.80;99.90;;;;;;5049807;28;20048;-79
2022/01/01 12:41:19;;;;;;;27.83;15.82;;;8.90;99.90;;;;;;5061088;28;20051;-80
2022/01/01 12:44:00;;;;;;;15.50;9.70;;;8.80;99.90;;;;;;5052775;28;20024;-79
2022/01/01 12:46:37;;;;;;;18.20;9.95;;;8.80;99.90;;;;;;5065612;28;20055;-79
2022/01/01 12:49:06;;;;;;;19.13;9.57;;;8.80;99.90;;;;;;5046613;28;20036;-78
2022/01/01 12:51:37;;;;;;;19.83;10.85;;;8.80;99.90;;;;;;5053718;28;20040;-77
2022/01/01 12:54:06;;;;;;;24.45;12.75;;;8.90;99.90;;;;;;5055345;28;20390;-78
2022/01/01 12:56:34;;;;;;;20.08;12.07;;;8.80;99.90;;;;;;5057582;28;20104;-79
2022/01/01 12:59:07;;;;;;;17.70;10.18;;;8.90;99.90;;;;;;5051722;28;20398;-78
2022/01/01 13:01:38;;;;;;;17.77;10.68;;;8.80;99.90;;;;;;5050851;28;20425;-78